Time;durP1;ratioP1;P1;durP2;ratioP2;P2;SDS_P1;SDS_P2;PMS_P1;PMS_P2;Temp;Humidity;BMP_temperature;BMP_pressure;BME280_temperature;BME280_humidity;BME280_pressure;Samples;Min_cycle;Max_cycle;Signal;HPM_P1;HPM_P2
2022/04/06 00:02:07;;;;;;;6.92;3.87;;;;;;;5.94;66.63;99460.58;1717772;82;21025;-52
2022/04/06 00:04:34;;;;;;;7.25;3.52;;;;;;;5.96;66.71;99456.58;1700587;82;21041;-53
2022/04/06 00:07:02;;;;;;;6.30;3.47;;;;;;;5.99;66.60;99449.00;1712053;82;21141;-53
2022/04/06 00:09:30;;;;;;;7.25;3.25;;;;;;;6.03;66.57;99453.85;1708190;82;21541;-53
2022/04/06 00:11:57;;;;;;;7.87;3.35;;;;;;;6.10;66.52;99450.30;1701561;83;21572;-53
2022/04/06 00:14:24;;;;;;;5.35;3.08;;;;;;;6.13;66.50;99453.98;1711495;82;21078;-53
2022/04/06 00:16:51;;;;;;;5.90;3.40;;;;;;;6.14;66.38;99459.58;1709868;82;21574;-53
2022/04/06 00:19:19;;;;;;;6.75;3.50;;;;;;;6.12;66.27;99464.92;1712522;82;21074;-52
2022/04/06 00:21:47;;;;;;;6.92;3.08;;;;;;;6.07;66.22;99470.97;1705165;82;21070;-52
2022/04/06 00:24:13;;;;;;;5.90;3.50;;;;;;;6.03;66.34;99476.05;1707574;82;21090;-52
2022/04/06 00:26:40;;;;;;;6.33;3.33;;;;;;;5.97;66.41;99480.91;1710285;82;21661;-52
2022/04/06 00:29:09;;;;;;;6.50;3.52;;;;;;;5.90;66.52;99481.80;1703189;82;21144;-53
2022/04/06 00:31:35;;;;;;;5.95;3.08;;;;;;;5.90;66.61;99481.35;1709114;82;21904;-52
2022/04/06 00:34:02;;;;;;;9.08;3.87;;;;;;;5.92;66.56;99474.71;1708747;82;21137;-52
2022/04/06 00:36:29;;;;;;;5.12;2.92;;;;;;;5.94;66.60;99479.34;1702201;82;21118;-53
2022/04/06 00:38:57;;;;;;;5.92;3.33;;;;;;;5.93;66.56;99475.91;1704998;83;21507;-52
2022/04/06 00:41:25;;;;;;;6.50;3.08;;;;;;;5.90;66.62;99480.50;1710569;82;21106;-52
2022/04/06 00:44:13;;;;;;;6.15;3.37;;;;;;;5.86;66.64;99481.20;1705472;82;21074;-53
2022/04/06 00:46:41;;;;;;;7.10;3.42;;;;;;;5.82;66.71;99483.70;1708638;82;21152;-53
2022/04/06 00:49:11;;;;;;;6.40;3.72;;;;;;;5.75;66.76;99480.72;1706345;82;21154;-53
2022/04/06 00:51:40;;;;;;;6.37;3.98;;;;;;;5.71;66.82;99491.01;1708812;82;21050;-52
2022/04/06 00:54:06;;;;;;;7.37;3.40;;;;;;;5.66;66.94;99490.52;1729320;81;21565;-52
2022/04/06 00:56:35;;;;;;;6.53;3.50;;;;;;;5.61;67.04;99502.25;1735325;81;21102;-52
2022/04/06 00:59:02;;;;;;;5.90;3.65;;;;;;;5.58;67.18;99498.08;1738101;81;21231;-52
2022/04/06 01:01:29;;;;;;;6.20;2.90;;;;;;;5.59;67.16;99499.27;1730655;81;21560;-52
2022/04/06 01:03:56;;;;;;;5.45;3.10;;;;;;;5.61;67.23;99500.95;1733539;81;21092;-52
2022/04/06 01:06:23;;;;;;;6.70;3.02;;;;;;;5.61;67.27;99498.34;1738558;81;21110;-52
2022/04/06 01:08:51;;;;;;;6.28;3.30;;;;;;;5.61;67.31;99503.08;1711561;81;21078;-52
2022/04/06 01:11:20;;;;;;;8.63;3.35;;;;;;;5.56;67.38;99504.74;1734293;81;21155;-53
2022/04/06 01:13:47;;;;;;;6.20;3.33;;;;;;;5.51;67.54;99511.22;1731919;81;21034;-53
2022/04/06 01:16:16;;;;;;;6.00;3.25;;;;;;;5.47;67.61;99512.41;1730932;81;21023;-53
2022/04/06 01:18:42;;;;;;;6.78;3.33;;;;;;;5.43;67.65;99514.41;1738968;81;21046;-53
2022/04/06 01:21:12;;;;;;;6.75;3.62;;;;;;;5.36;67.87;99519.23;1735252;81;21142;-55
2022/04/06 01:23:42;;;;;;;5.87;3.30;;;;;;;5.32;68.05;99512.55;1733788;81;21138;-53
2022/04/06 01:26:10;;;;;;;5.78;3.40;;;;;;;5.33;68.05;99515.53;1727651;81;21066;-53
2022/04/06 01:28:38;;;;;;;6.37;3.33;;;;;;;5.35;68.13;99519.34;1740909;81;21035;-53
2022/04/06 01:31:05;;;;;;;6.25;3.22;;;;;;;5.34;68.15;99513.27;1736369;81;21537;-54
2022/04/06 01:33:32;;;;;;;6.65;3.80;;;;;;;5.33;68.25;99515.98;1735040;81;21086;-53
2022/04/06 01:36:00;;;;;;;6.97;3.67;;;;;;;5.29;68.38;99512.77;1730442;81;21132;-53
2022/04/06 01:38:27;;;;;;;6.42;3.83;;;;;;;5.24;68.51;99510.97;1731210;81;21129;-53
2022/04/06 01:40:54;;;;;;;7.12;4.10;;;;;;;5.18;68.60;99509.64;1722112;81;21089;-54
2022/04/06 01:43:22;;;;;;;6.28;3.62;;;;;;;5.13;68.67;99510.92;1722386;81;21109;-53
2022/04/06 01:45:50;;;;;;;6.55;3.70;;;;;;;5.07;68.81;99516.08;1731266;81;21003;-53
2022/04/06 01:48:18;;;;;;;7.75;3.95;;;;;;;5.03;68.76;99520.69;1737573;81;21152;-53
2022/04/06 01:53:30;;;;;;;6.90;3.97;;;;;;;5.08;68.82;99509.94;1706296;82;21581;-52
2022/04/06 01:55:57;;;;;;;6.97;3.45;;;;;;;5.09;68.84;99513.37;1708900;82;21094;-53
2022/04/06 01:58:24;;;;;;;8.03;3.58;;;;;;;5.06;68.92;99513.58;1712033;82;22217;-53
2022/04/06 02:00:52;;;;;;;7.30;3.52;;;;;;;5.03;68.93;99516.78;1706619;82;21981;-53
2022/04/06 02:03:19;;;;;;;6.45;3.42;;;;;;;4.99;68.95;99525.77;1707955;82;21021;-53
2022/04/06 02:05:46;;;;;;;6.58;3.67;;;;;;;4.94;69.00;99528.32;1711752;82;21062;-52
2022/04/06 02:08:13;;;;;;;6.92;3.58;;;;;;;4.88;69.09;99533.50;1705503;82;21031;-52
2022/04/06 02:10:39;;;;;;;6.72;3.77;;;;;;;4.83;69.17;99535.60;1710890;82;21133;-52
2022/04/06 02:13:06;;;;;;;7.22;3.83;;;;;;;4.79;69.22;99531.52;1707396;82;21985;-52
2022/04/06 02:15:32;;;;;;;5.75;3.20;;;;;;;4.85;69.13;99533.71;1703744;82;21061;-52
2022/04/06 02:18:01;;;;;;;6.37;3.70;;;;;;;4.88;69.08;99537.89;1690808;82;21126;-52
2022/04/06 02:20:28;;;;;;;6.15;3.50;;;;;;;4.88;69.06;99537.41;1712115;82;21144;-52
2022/04/06 02:22:54;;;;;;;6.47;3.45;;;;;;;4.85;69.08;99540.23;1734121;81;21064;-53
2022/04/06 02:25:22;;;;;;;6.87;3.75;;;;;;;4.82;69.12;99537.38;1730794;81;21135;-53
2022/04/06 02:27:51;;;;;;;6.37;3.33;;;;;;;4.79;69.16;99535.44;1700855;82;21083;-52
2022/04/06 02:30:18;;;;;;;8.13;4.15;;;;;;;4.75;69.21;99534.00;1700650;82;22246;-53
2022/04/06 02:32:45;;;;;;;8.35;4.00;;;;;;;4.70;69.26;99539.99;1718470;82;21113;-52
2022/04/06 02:35:12;;;;;;;10.13;3.85;;;;;;;4.67;69.28;99543.63;1712318;82;21018;-52
2022/04/06 02:37:41;;;;;;;6.78;3.70;;;;;;;4.61;69.28;99550.11;1707210;82;21254;-53
2022/04/06 02:40:10;;;;;;;8.08;4.62;;;;;;;4.58;69.32;99550.31;1701716;82;21144;-52
2022/04/06 02:42:37;;;;;;;8.40;3.50;;;;;;;4.62;69.22;99555.70;1712987;83;21663;-52
2022/04/06 02:45:05;;;;;;;6.15;3.40;;;;;;;4.68;69.17;99557.52;1713382;81;21073;-52
2022/04/06 02:47:31;;;;;;;8.03;3.60;;;;;;;4.71;69.10;99554.67;1714269;81;21074;-52
2022/04/06 02:49:59;;;;;;;7.95;3.80;;;;;;;4.72;69.12;99555.05;1714807;81;21082;-52
2022/04/06 02:52:26;;;;;;;5.67;3.42;;;;;;;4.68;69.19;99540.58;1712483;81;21564;-52
2022/04/06 02:54:53;;;;;;;6.45;3.25;;;;;;;4.64;69.22;99552.52;1713516;81;21799;-52
2022/04/06 02:57:20;;;;;;;6.67;3.72;;;;;;;4.60;69.28;99554.13;1707360;83;21098;-52
2022/04/06 02:59:47;;;;;;;6.90;4.30;;;;;;;4.56;69.37;99553.50;1709646;82;21628;-52
2022/04/06 03:02:14;;;;;;;7.62;4.22;;;;;;;4.52;69.48;99550.72;1681289;83;21155;-51
2022/04/06 03:04:42;;;;;;;7.20;3.72;;;;;;;4.44;69.63;99556.95;1680930;83;21089;-51
2022/04/06 03:07:08;;;;;;;7.30;3.60;;;;;;;4.43;69.70;99556.58;1679004;84;21498;-52
2022/04/06 03:09:37;;;;;;;7.08;3.33;;;;;;;4.47;69.59;99548.91;1668583;85;21873;-52
2022/04/06 03:12:06;;;;;;;6.35;3.37;;;;;;;4.51;69.56;99545.64;1680362;83;21061;-52
2022/04/06 03:14:33;;;;;;;7.92;4.17;;;;;;;4.51;69.60;99550.38;1663002;85;21253;-51
2022/04/06 03:17:00;;;;;;;7.65;4.00;;;;;;;4.50;69.66;99564.81;1673368;83;21586;-52
2022/04/06 03:19:27;;;;;;;7.50;3.80;;;;;;;4.46;69.70;99568.09;1666340;83;21081;-52
2022/04/06 03:21:54;;;;;;;6.67;4.00;;;;;;;4.41;69.83;99574.91;1709521;81;21140;-51
2022/04/06 03:24:22;;;;;;;6.67;4.00;;;;;;;4.37;69.83;99572.16;1711726;81;21515;-52
2022/04/06 03:26:49;;;;;;;7.83;3.87;;;;;;;4.34;69.83;99571.50;1713329;81;21168;-51
2022/04/06 03:29:15;;;;;;;8.60;4.45;;;;;;;4.28;69.87;99578.80;1679564;83;21066;-53
2022/04/06 03:31:43;;;;;;;7.10;3.50;;;;;;;4.28;69.88;99577.97;1678192;83;21010;-52
2022/04/06 03:34:09;;;;;;;7.72;4.08;;;;;;;4.33;69.72;99576.37;1668152;83;21100;-52
2022/04/06 03:36:38;;;;;;;6.67;3.50;;;;;;;4.36;69.65;99590.02;1668807;83;21022;-51
2022/04/06 03:39:05;;;;;;;8.25;4.42;;;;;;;4.39;69.64;99579.88;1682722;83;21141;-52
2022/04/06 03:41:32;;;;;;;6.15;3.52;;;;;;;4.39;69.69;99586.39;1671003;83;21082;-52
2022/04/06 03:43:58;;;;;;;8.78;4.25;;;;;;;4.39;69.71;99583.30;1717229;81;21746;-52
2022/04/06 03:46:25;;;;;;;8.53;3.40;;;;;;;4.38;69.62;99594.64;1738688;80;21057;-52
2022/04/06 03:48:52;;;;;;;7.78;4.53;;;;;;;4.37;69.57;99599.95;1668633;83;21711;-53
2022/04/06 03:51:19;;;;;;;7.58;3.95;;;;;;;4.33;69.52;99594.59;1676435;83;21203;-52
2022/04/06 03:53:47;;;;;;;7.35;3.87;;;;;;;4.32;69.57;99589.02;1677443;83;21098;-52
2022/04/06 03:56:13;;;;;;;7.15;3.80;;;;;;;4.34;69.54;99578.88;1675246;83;21093;-52
2022/04/06 03:58:41;;;;;;;7.62;4.08;;;;;;;4.41;69.35;99575.39;1677306;83;21545;-52
2022/04/06 04:01:09;;;;;;;6.85;2.98;;;;;;;4.50;69.26;99576.05;1679916;83;21117;-52
2022/04/06 04:03:36;;;;;;;8.43;4.53;;;;;;;4.57;69.08;99579.08;1686121;84;21091;-52
2022/04/06 04:08:29;;;;;;;6.72;3.75;;;;;;;4.60;68.85;99601.84;1859504;76;21959;-53
2022/04/06 04:10:55;;;;;;;7.33;4.03;;;;;;;4.53;68.84;99602.38;1823306;77;20978;-53
2022/04/06 04:13:22;;;;;;;7.33;3.50;;;;;;;4.49;68.86;99610.88;1824745;77;21170;-52
2022/04/06 04:15:49;;;;;;;6.67;3.35;;;;;;;4.46;69.00;99618.89;1818116;77;21052;-53
2022/04/06 04:18:17;;;;;;;4.92;2.80;;;;;;;4.44;69.08;99625.51;1829417;77;21054;-53
2022/04/06 04:20:45;;;;;;;8.83;3.90;;;;;;;4.46;69.10;99620.20;1830004;77;21022;-54
2022/04/06 04:23:12;;;;;;;7.78;3.95;;;;;;;4.54;68.96;99623.58;1825639;77;20960;-53
2022/04/06 04:25:40;;;;;;;6.42;3.30;;;;;;;4.64;68.86;99630.69;1828735;77;22150;-53
2022/04/06 04:28:07;;;;;;;6.45;3.75;;;;;;;4.74;68.81;99627.00;1826280;78;21555;-53
2022/04/06 04:30:35;;;;;;;8.53;3.90;;;;;;;4.81;68.72;99626.11;1821713;77;21022;-52
2022/04/06 04:33:01;;;;;;;9.23;3.83;;;;;;;4.86;68.68;99609.69;1782006;79;21042;-53
2022/04/06 04:35:29;;;;;;;6.62;3.62;;;;;;;4.92;68.57;99607.94;1765875;79;21084;-53
2022/04/06 04:37:56;;;;;;;6.12;3.60;;;;;;;4.98;68.35;99597.09;1769285;80;21184;-53
2022/04/06 04:40:22;;;;;;;7.03;3.90;;;;;;;4.99;68.12;99601.38;1770811;80;21141;-53
2022/04/06 04:42:50;;;;;;;7.25;3.92;;;;;;;4.97;67.78;99594.11;1768022;80;21624;-53
2022/04/06 04:45:17;;;;;;;8.15;4.22;;;;;;;4.97;67.81;99598.50;1763835;80;21004;-53
2022/04/06 04:47:45;;;;;;;7.72;3.70;;;;;;;5.03;67.66;99610.64;1769856;79;21081;-53
2022/04/06 04:50:11;;;;;;;7.22;3.55;;;;;;;5.06;67.49;99633.08;1772114;79;21125;-53
2022/04/06 04:52:38;;;;;;;6.45;3.77;;;;;;;5.09;67.36;99656.80;1767907;80;21137;-53
2022/04/06 04:55:06;;;;;;;5.67;2.95;;;;;;;5.08;67.33;99666.84;1758683;79;21106;-52
2022/04/06 04:57:34;;;;;;;6.55;3.60;;;;;;;5.08;67.30;99661.19;1775853;78;21544;-53
2022/04/06 05:00:00;;;;;;;7.70;3.95;;;;;;;5.03;67.17;99656.28;1785278;78;21044;-53
2022/04/06 05:02:27;;;;;;;7.87;4.30;;;;;;;5.04;67.26;99666.23;1783804;78;21140;-53
2022/04/06 05:04:53;;;;;;;7.12;3.77;;;;;;;5.03;67.12;99668.01;1764818;79;21678;-52
2022/04/06 05:07:20;;;;;;;6.78;3.55;;;;;;;5.05;67.24;99672.30;1770111;78;21076;-53
2022/04/06 05:09:47;;;;;;;7.67;4.05;;;;;;;5.12;67.28;99674.84;1780285;80;21041;-52
2022/04/06 05:12:15;;;;;;;9.00;4.20;;;;;;;5.20;67.09;99660.81;1757067;80;21047;-54
2022/04/06 05:14:42;;;;;;;6.25;3.10;;;;;;;5.34;66.85;99660.66;1756159;80;21140;-52
2022/04/06 05:17:08;;;;;;;7.55;4.10;;;;;;;5.47;66.76;99654.61;1770840;80;21051;-53
2022/04/06 05:19:35;;;;;;;6.17;3.22;;;;;;;5.58;66.46;99665.09;1769102;79;20968;-53
2022/04/06 05:22:04;;;;;;;7.55;3.67;;;;;;;5.67;66.33;99664.46;1762465;80;21047;-53
2022/04/06 05:24:31;;;;;;;6.85;3.87;;;;;;;5.74;66.07;99664.38;1768260;80;21038;-53
2022/04/06 05:27:00;;;;;;;6.62;3.27;;;;;;;5.79;65.98;99669.76;1760906;80;21711;-52
2022/04/06 05:29:26;;;;;;;6.42;3.60;;;;;;;5.88;65.77;99661.25;1756417;79;21007;-53
2022/04/06 05:31:53;;;;;;;6.72;3.98;;;;;;;5.93;65.62;99660.00;1757904;80;21089;-52
2022/04/06 05:34:20;;;;;;;7.12;3.87;;;;;;;6.00;65.21;99653.03;1773080;80;21078;-53
2022/04/06 05:36:47;;;;;;;8.33;4.28;;;;;;;6.03;65.08;99643.67;1770133;80;21090;-55
2022/04/06 05:39:13;;;;;;;6.75;3.70;;;;;;;6.07;64.75;99643.34;1768052;80;21130;-51
2022/04/06 05:41:42;;;;;;;6.40;3.50;;;;;;;6.19;64.51;99657.77;1755307;80;21054;-53
2022/04/06 05:44:08;;;;;;;6.45;2.95;;;;;;;6.25;64.46;99659.43;1777145;80;21004;-52
2022/04/06 05:46:35;;;;;;;7.62;3.58;;;;;;;6.31;64.37;99672.53;1772390;80;21089;-52
2022/04/06 05:50:26;;;;;;;8.93;4.25;;;;;;;6.42;64.08;99676.95;1788598;78;22077;-52
2022/04/06 05:52:53;;;;;;;7.53;3.90;;;;;;;6.45;63.72;99684.09;1769786;80;21042;-53
2022/04/06 05:55:20;;;;;;;6.72;3.62;;;;;;;6.47;63.89;99683.53;1746857;79;21146;-53
2022/04/06 05:57:48;;;;;;;7.45;4.22;;;;;;;6.50;63.82;99688.50;1710052;82;20942;-52
2022/04/06 06:00:17;;;;;;;7.55;4.42;;;;;;;6.51;63.74;99688.87;1714704;81;21665;-53
2022/04/06 06:02:45;;;;;;;8.83;5.47;;;;;;;6.53;63.75;99680.09;1701372;82;21078;-54
2022/04/06 06:05:12;;;;;;;8.75;4.92;;;;;;;6.58;63.75;99680.59;1700275;82;21602;-54
2022/04/06 06:07:38;;;;;;;7.87;4.45;;;;;;;6.68;63.75;99671.92;1705174;82;21148;-52
2022/04/06 06:10:08;;;;;;;8.20;4.42;;;;;;;6.80;63.57;99669.34;1699545;82;21111;-53
2022/04/06 06:12:36;;;;;;;7.12;4.28;;;;;;;6.87;63.59;99664.00;1699660;82;21535;-55
2022/04/06 06:15:06;;;;;;;8.23;4.87;;;;;;;6.94;63.55;99659.13;1712800;82;21504;-52
2022/04/06 06:17:39;;;;;;;6.97;4.22;;;;;;;7.00;63.45;99647.73;1705569;82;21500;-52
2022/04/06 06:20:07;;;;;;;7.62;4.22;;;;;;;7.03;63.25;99629.67;1710586;82;22228;-54
2022/04/06 06:22:34;;;;;;;8.28;4.80;;;;;;;7.05;63.38;99627.77;1716196;82;22206;-53
2022/04/06 06:25:03;;;;;;;8.08;4.75;;;;;;;7.05;63.21;99652.61;1709467;82;21572;-53
2022/04/06 06:27:41;;;;;;;7.55;4.80;;;;;;;7.04;63.43;99657.47;1724583;81;21685;-52
2022/04/06 06:30:12;;;;;;;6.83;4.33;;;;;;;7.07;63.51;99658.55;1715952;81;21086;-53
2022/04/06 06:32:40;;;;;;;8.98;5.20;;;;;;;7.17;63.53;99654.75;1741801;81;21060;-52
2022/04/06 06:35:09;;;;;;;7.47;4.55;;;;;;;7.24;63.30;99658.06;1730100;81;21026;-54
2022/04/06 06:37:36;;;;;;;8.08;4.45;;;;;;;7.27;63.12;99658.80;1701776;82;21515;-54
2022/04/06 06:40:05;;;;;;;9.05;5.08;;;;;;;7.28;63.10;99661.76;1748244;81;21081;-52
2022/04/06 06:42:31;;;;;;;7.55;4.00;;;;;;;7.30;63.19;99662.50;1743593;81;21546;-52
2022/04/06 06:44:58;;;;;;;8.63;4.92;;;;;;;7.32;63.34;99665.33;1704098;82;21188;-52
2022/04/06 06:47:25;;;;;;;10.03;4.60;;;;;;;7.38;63.25;99673.17;1710910;82;21121;-52
2022/04/06 06:49:52;;;;;;;10.38;5.08;;;;;;;7.38;62.93;99670.10;1710582;82;21184;-54
2022/04/06 06:52:19;;;;;;;8.53;4.55;;;;;;;7.39;63.07;99661.28;1699413;82;21060;-53
2022/04/06 06:54:45;;;;;;;7.58;4.70;;;;;;;7.48;63.13;99660.20;1705609;82;21584;-52
2022/04/06 06:57:13;;;;;;;8.03;4.45;;;;;;;7.64;62.87;99661.97;1704204;82;21198;-53
2022/04/06 06:59:41;;;;;;;7.58;4.22;;;;;;;7.78;62.48;99658.24;1702326;81;21116;-52
2022/04/06 07:02:09;;;;;;;7.03;3.95;;;;;;;7.87;62.49;99657.52;1707734;81;21101;-53
2022/04/06 07:04:36;;;;;;;10.13;4.55;;;;;;;7.93;62.00;99663.56;1705760;82;21087;-53
2022/04/06 07:07:04;;;;;;;7.95;4.10;;;;;;;7.96;61.65;99663.31;1708904;82;21043;-52
2022/04/06 07:09:32;;;;;;;6.25;3.52;;;;;;;7.96;61.48;99667.73;1710271;82;21245;-52
2022/04/06 07:11:58;;;;;;;7.12;4.17;;;;;;;7.97;61.37;99671.55;1698639;82;21164;-52
2022/04/06 07:14:26;;;;;;;7.75;4.12;;;;;;;7.97;61.39;99671.55;1696409;82;21134;-53
2022/04/06 07:16:56;;;;;;;6.30;3.62;;;;;;;7.96;61.11;99662.00;1710059;81;21021;-51
2022/04/06 07:19:23;;;;;;;7.60;3.87;;;;;;;7.94;61.21;99663.92;1704831;83;21090;-52
2022/04/06 07:21:50;;;;;;;5.55;3.47;;;;;;;7.93;61.07;99660.11;1699120;83;21596;-52
2022/04/06 07:24:17;;;;;;;6.70;3.50;;;;;;;7.99;60.83;99658.32;1695622;83;21014;-54
2022/04/06 07:26:45;;;;;;;7.05;3.33;;;;;;;8.04;61.00;99640.93;1696071;83;21644;-52
2022/04/06 07:29:14;;;;;;;5.97;3.10;;;;;;;8.08;60.87;99642.33;1718785;81;21084;-52
2022/04/06 07:31:42;;;;;;;6.70;3.67;;;;;;;8.12;60.99;99650.28;1713955;82;21724;-53
2022/04/06 07:34:10;;;;;;;6.60;3.33;;;;;;;8.16;61.29;99641.23;1710753;83;21083;-52
2022/04/06 07:36:39;;;;;;;6.15;3.12;;;;;;;8.22;60.68;99638.57;1733059;81;21042;-53
2022/04/06 07:39:06;;;;;;;5.65;2.77;;;;;;;8.24;60.43;99634.03;1731329;81;21601;-53
2022/04/06 07:41:33;;;;;;;6.92;3.05;;;;;;;8.30;60.28;99647.95;1730442;81;21125;-52
2022/04/06 07:44:00;;;;;;;7.45;3.67;;;;;;;8.35;59.70;99641.39;1742698;81;21093;-51
2022/04/06 07:46:27;;;;;;;5.92;3.12;;;;;;;8.44;59.79;99649.45;1741909;81;22695;-52
2022/04/06 07:48:53;;;;;;;6.20;3.30;;;;;;;8.54;59.45;99659.07;1724171;81;21086;-52
2022/04/06 07:51:20;;;;;;;10.48;2.95;;;;;;;8.65;59.26;99663.41;1737638;81;21038;-52
2022/04/06 07:53:46;;;;;;;5.60;2.90;;;;;;;8.77;58.75;99643.67;1731091;81;21077;-52
2022/04/06 07:56:14;;;;;;;7.03;3.92;;;;;;;8.89;58.60;99646.56;1729302;81;21210;-53
2022/04/06 07:58:41;;;;;;;6.58;3.37;;;;;;;9.02;58.60;99658.17;1715052;81;21816;-53
2022/04/06 08:01:08;;;;;;;7.42;3.60;;;;;;;9.23;57.80;99659.42;1708096;82;21042;-50
2022/04/06 08:03:36;;;;;;;6.67;3.35;;;;;;;9.42;56.96;99646.38;1695662;83;21050;-49
2022/04/06 08:06:05;;;;;;;5.30;3.00;;;;;;;9.59;55.84;99653.28;1697475;83;21070;-52
2022/04/06 08:08:33;;;;;;;5.97;3.20;;;;;;;9.71;55.78;99643.48;1697173;82;21554;-52
2022/04/06 08:11:01;;;;;;;7.20;3.60;;;;;;;9.82;55.69;99648.14;1688919;82;21134;-51
2022/04/06 08:13:28;;;;;;;6.95;2.90;;;;;;;9.96;55.65;99646.91;1684046;82;21165;-50
2022/04/06 08:15:57;;;;;;;6.15;3.35;;;;;;;10.10;54.78;99654.86;1718140;83;21031;-53
2022/04/06 08:18:25;;;;;;;6.22;2.83;;;;;;;10.19;54.32;99652.73;1717148;81;21091;-52
2022/04/06 08:20:51;;;;;;;6.33;3.42;;;;;;;10.25;54.35;99640.82;1726262;81;21082;-52
2022/04/06 08:23:20;;;;;;;6.53;3.62;;;;;;;10.32;53.80;99627.98;1708530;81;21103;-53
2022/04/06 08:25:49;;;;;;;6.45;3.50;;;;;;;10.36;53.52;99635.95;1731074;81;21097;-51
2022/04/06 08:28:16;;;;;;;8.78;3.62;;;;;;;10.41;53.33;99641.13;1730369;81;21043;-52
2022/04/06 08:30:44;;;;;;;7.40;3.62;;;;;;;10.47;52.87;99631.83;1724767;81;21077;-52
2022/04/06 08:33:11;;;;;;;7.87;3.60;;;;;;;10.55;53.17;99638.54;1725772;81;21057;-51
2022/04/06 08:35:38;;;;;;;7.33;3.98;;;;;;;10.67;53.11;99644.97;1741327;81;21141;-51
2022/04/06 08:38:06;;;;;;;6.95;3.95;;;;;;;10.80;52.54;99621.81;1720923;81;21530;-53
2022/04/06 08:40:35;;;;;;;8.95;3.75;;;;;;;10.89;52.02;99627.55;1719899;82;21190;-51
2022/04/06 08:43:02;;;;;;;6.05;3.40;;;;;;;11.01;52.32;99618.13;1710255;82;21583;-52
2022/04/06 08:45:29;;;;;;;6.90;3.98;;;;;;;11.14;52.28;99644.47;1708085;82;21049;-51
2022/04/06 08:47:55;;;;;;;6.33;3.67;;;;;;;11.26;51.61;99633.30;1724041;82;21092;-53
2022/04/06 08:50:22;;;;;;;6.55;3.70;;;;;;;11.40;50.54;99617.95;1711354;82;21025;-53
2022/04/06 08:52:48;;;;;;;7.92;3.42;;;;;;;11.48;49.97;99627.27;1712460;82;21058;-51
2022/04/06 08:55:15;;;;;;;6.92;3.00;;;;;;;11.55;49.92;99630.14;1712046;82;21570;-50
2022/04/06 08:57:42;;;;;;;5.83;3.45;;;;;;;11.65;49.55;99617.73;1704550;82;21120;-50
2022/04/06 09:00:15;;;;;;;6.12;3.60;;;;;;;11.76;49.08;99639.11;1697362;81;21139;-49
2022/04/06 09:02:41;;;;;;;5.60;2.90;;;;;;;11.84;48.90;99620.75;1738428;81;21153;-52
2022/04/06 09:05:10;;;;;;;5.90;3.30;;;;;;;11.95;48.35;99623.67;1728091;81;21107;-52
2022/04/06 09:07:41;;;;;;;6.75;3.33;;;;;;;12.04;48.43;99619.65;1712830;82;21019;-51
2022/04/06 09:10:09;;;;;;;5.67;3.00;;;;;;;12.15;47.87;99619.08;1677614;83;21074;-52
2022/04/06 09:12:37;;;;;;;5.37;2.90;;;;;;;12.29;47.93;99606.68;1715847;82;21148;-52
2022/04/06 09:15:12;;;;;;;4.95;2.08;;;;;;;12.43;47.38;99610.57;1729783;81;21114;-51
2022/04/06 09:17:47;;;;;;;5.03;2.25;;;;;;;12.52;45.70;99599.08;1734810;80;21111;-55
2022/04/06 09:20:15;;;;;;;4.25;2.02;;;;;;;12.58;45.06;99606.89;1740530;81;21597;-52
2022/04/06 09:22:41;;;;;;;5.85;2.70;;;;;;;12.56;44.83;99616.27;1730617;81;21125;-52
2022/04/06 09:25:09;;;;;;;4.58;2.42;;;;;;;12.54;44.95;99613.44;1707939;82;21142;-54
2022/04/06 09:27:40;;;;;;;5.95;2.33;;;;;;;12.56;45.00;99625.52;1697185;83;21190;-51
2022/04/06 09:30:09;;;;;;;4.20;1.90;;;;;;;12.62;45.19;99628.02;1733655;81;21078;-52
2022/04/06 09:32:35;;;;;;;6.12;2.75;;;;;;;12.66;44.69;99616.18;1729219;81;21625;-50
2022/04/06 09:35:22;;;;;;;4.83;2.02;;;;;;;12.70;44.72;99624.11;1727946;81;21081;-51
2022/04/06 09:37:49;;;;;;;4.05;1.85;;;;;;;12.72;43.90;99611.58;1678851;83;21238;-51
2022/04/06 09:40:17;;;;;;;5.47;2.02;;;;;;;12.77;44.24;99657.31;1701085;82;21083;-54
2022/04/06 09:42:51;;;;;;;4.10;1.72;;;;;;;12.80;43.46;99594.47;1699966;83;21152;-51
2022/04/06 09:48:14;;;;;;;5.03;1.85;;;;;;;12.87;43.64;99588.58;1709112;81;21094;-52
2022/04/06 09:50:42;;;;;;;3.77;1.62;;;;;;;12.87;44.16;99598.63;1724641;81;21250;-53
2022/04/06 09:53:09;;;;;;;4.15;1.42;;;;;;;12.88;43.32;99620.58;1694186;81;21041;-53
2022/04/06 09:55:35;;;;;;;4.22;1.62;;;;;;;12.87;43.41;99643.52;1731486;81;21064;-53
2022/04/06 09:58:04;;;;;;;4.20;1.50;;;;;;;12.84;43.28;99624.02;1725310;81;21069;-52
2022/04/06 10:00:31;;;;;;;3.55;1.42;;;;;;;12.81;43.11;99627.81;1722633;81;21084;-53
2022/04/06 10:03:09;;;;;;;4.35;1.70;;;;;;;12.78;43.11;99616.75;1727451;81;21201;-52
2022/04/06 10:05:38;;;;;;;6.20;1.40;;;;;;;12.77;43.36;99619.03;1728537;81;20999;-53
2022/04/06 10:08:07;;;;;;;4.67;1.52;;;;;;;12.78;43.43;99629.95;1728989;82;21054;-51
2022/04/06 10:10:40;;;;;;;5.00;2.08;;;;;;;12.77;43.31;99633.56;1734576;81;21007;-53
2022/04/06 10:13:10;;;;;;;3.62;1.40;;;;;;;12.75;43.55;99627.11;1733789;81;21121;-52
2022/04/06 10:15:39;;;;;;;4.33;1.37;;;;;;;12.78;43.84;99622.03;1721952;81;21214;-52
2022/04/06 10:18:06;;;;;;;4.10;1.50;;;;;;;12.81;43.84;99627.00;1722281;81;21101;-52
2022/04/06 10:21:00;;;;;;;5.78;2.00;;;;;;;12.83;43.79;99656.70;1725618;81;21562;-51
2022/04/06 10:23:49;;;;;;;4.30;1.85;;;;;;;12.85;43.89;99656.55;1739559;81;21093;-51
2022/04/06 10:26:25;;;;;;;4.85;1.60;;;;;;;12.90;44.23;99638.44;1730085;81;21003;-51
2022/04/06 10:28:52;;;;;;;4.95;1.98;;;;;;;12.95;44.34;99642.75;1722618;81;21142;-52
2022/04/06 10:31:22;;;;;;;4.90;2.12;;;;;;;12.99;44.52;99641.44;1729512;81;21545;-52
2022/04/06 10:33:50;;;;;;;3.87;1.60;;;;;;;13.01;44.16;99657.95;1740411;81;21043;-51
2022/04/06 10:36:29;;;;;;;4.67;1.32;;;;;;;13.03;44.37;99649.41;1729709;81;21010;-51
2022/04/06 10:39:10;;;;;;;3.05;1.37;;;;;;;13.05;44.30;99661.13;1722323;81;21151;-52
2022/04/06 10:41:41;;;;;;;3.22;1.20;;;;;;;13.05;44.11;99654.53;1719633;81;21136;-50
2022/04/06 10:44:08;;;;;;;4.35;2.10;;;;;;;13.08;44.07;99671.36;1729816;81;21650;-52
2022/04/06 10:46:40;;;;;;;4.58;1.90;;;;;;;13.13;44.50;99667.75;1735147;81;21081;-54
2022/04/06 10:49:12;;;;;;;3.30;1.57;;;;;;;13.16;43.63;99678.02;1721962;81;21070;-51
2022/04/06 10:51:45;;;;;;;4.12;1.72;;;;;;;13.22;43.94;99668.14;1732443;81;21529;-50
2022/04/06 10:54:20;;;;;;;4.37;1.70;;;;;;;13.27;43.98;99661.90;1691581;82;21245;-51
2022/04/06 10:56:52;;;;;;;7.45;1.90;;;;;;;13.30;43.86;99663.41;1708622;83;21616;-51
2022/04/06 10:59:24;;;;;;;3.90;1.70;;;;;;;13.32;44.15;99671.53;1692603;83;21018;-51
2022/04/06 11:02:20;;;;;;;3.72;1.62;;;;;;;13.29;44.10;99663.88;1699258;82;21540;-51
2022/04/06 11:04:48;;;;;;;5.90;1.60;;;;;;;13.29;44.27;99663.06;1690431;83;21148;-53
2022/04/06 11:10:25;;;;;;;3.72;1.70;;;;;;;13.36;44.69;99663.64;1707109;83;22261;-52
2022/04/06 11:13:03;;;;;;;5.00;2.02;;;;;;;13.47;44.48;99659.87;1713403;82;21088;-52
2022/04/06 11:15:44;;;;;;;2.98;1.35;;;;;;;13.56;44.06;99668.14;1711516;82;21093;-52
2022/04/06 11:18:47;;;;;;;5.42;1.80;;;;;;;13.66;44.37;99679.09;1732696;81;21077;-51
2022/04/06 11:21:15;;;;;;;4.03;1.67;;;;;;;13.71;44.12;99663.08;1698263;83;22080;-54
2022/04/06 11:23:42;;;;;;;4.12;1.67;;;;;;;13.72;43.92;99675.83;1716774;81;21153;-52
2022/04/06 11:26:09;;;;;;;4.37;2.00;;;;;;;13.72;44.23;99658.64;1720696;81;21077;-53
2022/04/06 11:28:37;;;;;;;3.92;1.80;;;;;;;13.67;44.01;99668.88;1720742;81;21101;-52
2022/04/06 11:31:04;;;;;;;4.60;1.80;;;;;;;13.58;44.24;99660.06;1717517;82;21061;-52
2022/04/06 11:33:42;;;;;;;3.45;1.45;;;;;;;13.52;44.54;99668.65;1699078;82;21963;-51
2022/04/06 11:36:15;;;;;;;3.65;1.60;;;;;;;13.48;44.74;99665.97;1710888;82;21126;-52
2022/04/06 11:38:42;;;;;;;2.95;1.20;;;;;;;13.45;44.94;99663.64;1709488;81;21525;-52
2022/04/06 11:41:08;;;;;;;3.58;1.60;;;;;;;13.44;44.96;99669.43;1708795;81;21058;-52
2022/04/06 11:43:44;;;;;;;3.30;1.22;;;;;;;13.43;45.25;99672.23;1707152;82;21475;-51
2022/04/06 11:46:11;;;;;;;4.40;1.52;;;;;;;13.42;45.49;99674.05;1704916;82;21157;-51
2022/04/06 11:48:42;;;;;;;3.75;1.60;;;;;;;13.45;45.51;99682.99;1710017;81;21106;-52
2022/04/06 11:51:11;;;;;;;3.25;1.50;;;;;;;13.46;45.49;99677.20;1729024;81;21074;-52
2022/04/06 11:53:38;;;;;;;2.77;1.15;;;;;;;13.44;45.50;99680.51;1711358;82;21077;-52
2022/04/06 11:56:05;;;;;;;4.25;1.75;;;;;;;13.43;45.51;99682.33;1691797;83;21130;-51
2022/04/06 11:58:40;;;;;;;2.98;1.27;;;;;;;13.44;45.49;99689.25;1728044;81;21236;-52